createdAt,value
2022-08-18T00:01:43.765Z,7.47
2022-08-18T00:04:34.938Z,8.57
2022-08-18T00:07:04.927Z,7.68
2022-08-18T00:09:36.367Z,8.18
2022-08-18T00:12:09.032Z,7.40
2022-08-18T00:14:38.538Z,7.95
2022-08-18T00:17:08.132Z,8.57
2022-08-18T00:19:46.489Z,8.15
2022-08-18T00:22:21.652Z,8.35
2022-08-18T00:24:53.185Z,8.63
2022-08-18T00:27:28.233Z,8.80
2022-08-18T00:29:59.610Z,10.27
2022-08-18T00:32:33.945Z,10.63
2022-08-18T00:35:08.997Z,12.10
2022-08-18T00:37:39.977Z,12.63
2022-08-18T00:40:11.863Z,15.10
2022-08-18T00:42:46.373Z,13.82
2022-08-18T00:45:20.952Z,15.07
2022-08-18T00:47:50.439Z,17.63
2022-08-18T00:50:24.172Z,19.08
2022-08-18T00:52:58.479Z,19.70
2022-08-18T00:55:31.162Z,20.38
2022-08-18T00:58:05.270Z,19.85
2022-08-18T01:00:35.628Z,19.23
2022-08-18T01:03:09.752Z,20.83
2022-08-18T01:05:45.311Z,17.80
2022-08-18T01:08:20.060Z,18.20
2022-08-18T01:11:02.100Z,18.80
2022-08-18T01:13:34.273Z,18.58
2022-08-18T01:16:24.563Z,18.92
2022-08-18T01:19:11.523Z,18.38
2022-08-18T01:21:54.125Z,18.35
2022-08-18T01:24:48.660Z,16.33
2022-08-18T01:27:19.057Z,15.95
2022-08-18T01:29:49.222Z,15.00
2022-08-18T01:32:21.362Z,14.05
2022-08-18T01:34:53.122Z,13.50
2022-08-18T01:37:24.492Z,14.50
2022-08-18T01:41:21.121Z,14.80
2022-08-18T01:42:46.195Z,16.73
2022-08-18T01:45:17.577Z,18.60
2022-08-18T01:47:58.130Z,17.98
2022-08-18T01:50:27.677Z,17.05
2022-08-18T01:52:57.087Z,19.80
2022-08-18T01:55:28.821Z,19.17
2022-08-18T01:57:58.604Z,18.98
2022-08-18T02:00:28.266Z,20.05
2022-08-18T02:03:02.533Z,20.85
2022-08-18T02:05:36.131Z,19.13
2022-08-18T02:08:06.784Z,20.33
2022-08-18T02:10:37.904Z,22.83
2022-08-18T02:13:07.630Z,21.75
2022-08-18T02:15:37.472Z,22.83
2022-08-18T02:18:30.372Z,23.52
2022-08-18T02:21:10.669Z,23.98
2022-08-18T02:23:40.349Z,23.90
2022-08-18T02:26:18.598Z,23.27
2022-08-18T02:28:48.202Z,23.48
2022-08-18T02:31:19.800Z,23.25
2022-08-18T02:33:52.100Z,22.92
2022-08-18T02:36:25.239Z,22.45
2022-08-18T02:38:59.790Z,23.67
2022-08-18T02:41:31.622Z,22.55
2022-08-18T02:44:02.029Z,20.90
2022-08-18T02:46:31.563Z,20.52
2022-08-18T02:49:02.150Z,22.13
2022-08-18T02:51:31.637Z,20.65
2022-08-18T02:54:01.227Z,21.20
2022-08-18T02:56:41.314Z,22.25
2022-08-18T02:59:14.813Z,20.85
2022-08-18T03:01:46.652Z,20.75
2022-08-18T03:04:22.904Z,21.80
2022-08-18T03:06:55.350Z,20.85
2022-08-18T03:09:25.302Z,20.00
2022-08-18T03:11:56.341Z,20.88
2022-08-18T03:14:25.794Z,19.85
2022-08-18T03:16:55.536Z,20.30
2022-08-18T03:19:26.360Z,19.95
2022-08-18T03:22:03.303Z,19.98
2022-08-18T03:24:33.980Z,18.55
2022-08-18T03:27:07.939Z,18.70
2022-08-18T03:29:38.790Z,18.00
2022-08-18T03:32:09.390Z,16.52
2022-08-18T03:34:39.201Z,16.20
2022-08-18T03:37:08.545Z,15.38
2022-08-18T03:39:38.072Z,15.45
2022-08-18T03:42:09.385Z,15.40
2022-08-18T03:44:38.835Z,14.88
2022-08-18T03:47:12.290Z,13.93
2022-08-18T03:49:42.123Z,14.20
2022-08-18T03:52:13.331Z,13.10
2022-08-18T03:54:43.540Z,13.90
2022-08-18T03:57:15.150Z,14.75
2022-08-18T03:59:44.674Z,15.85
2022-08-18T04:02:14.709Z,14.65
2022-08-18T04:04:44.193Z,15.10
2022-08-18T04:07:17.416Z,14.00
2022-08-18T04:09:49.829Z,14.68
2022-08-18T04:12:20.788Z,15.52
2022-08-18T04:14:52.201Z,19.67
2022-08-18T04:17:25.503Z,17.27
2022-08-18T04:19:55.477Z,21.40
2022-08-18T04:22:25.580Z,23.85
2022-08-18T04:24:56.012Z,27.30
2022-08-18T04:27:30.195Z,8.95
2022-08-18T04:30:02.894Z,7.75
2022-08-18T04:32:32.978Z,6.10
2022-08-18T04:35:03.167Z,4.80
2022-08-18T04:37:33.154Z,4.82
2022-08-18T04:40:08.636Z,4.72
2022-08-18T04:42:43.262Z,4.50
2022-08-18T04:45:13.497Z,4.82
2022-08-18T04:47:43.520Z,4.35
2022-08-18T04:50:14.396Z,4.03
2022-08-18T04:53:02.178Z,3.78
2022-08-18T04:55:31.710Z,4.43
2022-08-18T04:58:03.100Z,4.18
2022-08-18T05:00:32.600Z,4.28
2022-08-18T05:03:01.929Z,4.70
2022-08-18T05:05:31.441Z,3.90
2022-08-18T05:08:00.833Z,4.35
2022-08-18T05:10:30.621Z,4.40
2022-08-18T05:13:00.111Z,4.35
2022-08-18T05:15:46.961Z,4.75
2022-08-18T05:18:24.657Z,5.22
2022-08-18T05:20:58.069Z,4.90
2022-08-18T05:23:29.806Z,5.07
2022-08-18T05:26:00.204Z,5.35
2022-08-18T05:28:30.346Z,4.80
2022-08-18T05:31:01.237Z,5.32
2022-08-18T05:33:30.972Z,4.78
2022-08-18T05:36:05.292Z,5.40
2022-08-18T05:38:43.268Z,5.22
2022-08-18T05:41:15.842Z,4.78
2022-08-18T05:43:51.795Z,4.60
2022-08-18T05:46:28.021Z,4.72
2022-08-18T05:48:57.711Z,4.75
2022-08-18T05:51:35.062Z,4.90
2022-08-18T05:54:25.552Z,4.80
2022-08-18T05:56:59.609Z,5.30
2022-08-18T05:59:32.803Z,4.60
2022-08-18T06:02:10.519Z,4.75
2022-08-18T06:04:47.969Z,4.22
2022-08-18T06:07:25.502Z,4.63
2022-08-18T06:10:01.422Z,4.88
2022-08-18T06:12:37.632Z,5.13
2022-08-18T06:15:15.332Z,4.60
2022-08-18T06:18:20.160Z,4.60
2022-08-18T06:21:21.259Z,4.40
2022-08-18T06:23:58.648Z,4.43
2022-08-18T06:26:37.710Z,4.53
2022-08-18T06:29:25.460Z,4.30
2022-08-18T06:32:03.420Z,4.28
2022-08-18T06:34:42.918Z,4.32
2022-08-18T06:37:21.559Z,4.13
2022-08-18T06:39:53.241Z,4.28
2022-08-18T06:42:31.858Z,4.20
2022-08-18T06:45:03.849Z,3.78
2022-08-18T06:47:41.109Z,3.88
2022-08-18T06:50:18.263Z,3.50
2022-08-18T06:52:56.939Z,3.50
2022-08-18T06:55:36.120Z,3.92
2022-08-18T06:58:08.139Z,4.30
2022-08-18T07:00:39.567Z,3.75
2022-08-18T07:03:14.769Z,3.40
2022-08-18T07:06:02.379Z,3.50
2022-08-18T07:08:35.849Z,3.10
2022-08-18T07:11:16.030Z,3.28
2022-08-18T07:13:58.609Z,3.65
2022-08-18T07:16:57.608Z,3.30
2022-08-18T07:19:31.590Z,3.45
2022-08-18T07:22:06.946Z,3.28
2022-08-18T07:24:42.990Z,3.25
2022-08-18T07:27:18.059Z,3.20
2022-08-18T07:30:05.069Z,3.10
2022-08-18T07:32:41.231Z,3.47
2022-08-18T07:35:12.020Z,3.75
2022-08-18T07:37:48.636Z,4.20
2022-08-18T07:40:31.880Z,4.15
2022-08-18T07:43:05.126Z,4.50
2022-08-18T07:45:39.189Z,5.10
2022-08-18T07:48:37.150Z,5.00
2022-08-18T07:51:13.960Z,4.28
2022-08-18T07:53:56.423Z,4.90
2022-08-18T07:56:43.221Z,4.32
2022-08-18T07:59:18.799Z,3.97
2022-08-18T08:01:55.250Z,4.60
2022-08-18T08:04:35.166Z,4.15
2022-08-18T08:07:27.710Z,4.60
2022-08-18T08:10:14.799Z,5.00
2022-08-18T08:13:08.859Z,4.85
2022-08-18T08:15:50.639Z,4.40
2022-08-18T08:18:27.083Z,4.05
2022-08-18T08:21:00.000Z,4.30
2022-08-18T08:23:35.180Z,4.43
2022-08-18T08:26:25.130Z,4.93
2022-08-18T08:29:06.970Z,4.47
2022-08-18T08:31:47.609Z,4.82
2022-08-18T08:34:21.391Z,5.00
2022-08-18T08:36:56.308Z,4.30
2022-08-18T08:39:29.949Z,4.60
2022-08-18T08:42:30.345Z,3.53
2022-08-18T08:45:01.302Z,3.13
2022-08-18T08:47:36.530Z,2.47
2022-08-18T08:50:13.767Z,2.40
2022-08-18T08:52:47.713Z,2.80
2022-08-18T08:55:25.759Z,2.55
2022-08-18T08:58:04.738Z,2.25
2022-08-18T09:00:36.819Z,2.40
2022-08-18T09:03:33.289Z,2.38
2022-08-18T09:06:16.397Z,2.05
2022-08-18T09:09:00.967Z,2.15
2022-08-18T09:11:46.703Z,1.88
2022-08-18T09:14:49.631Z,2.30
2022-08-18T09:17:45.169Z,2.20
2022-08-18T09:20:51.343Z,2.35
2022-08-18T09:23:24.568Z,1.95
2022-08-18T09:25:56.016Z,1.88
2022-08-18T09:28:56.610Z,1.92
2022-08-18T09:31:28.170Z,2.33
2022-08-18T09:34:36.520Z,1.95
2022-08-18T09:37:18.131Z,2.10
2022-08-18T09:40:17.570Z,2.40
2022-08-18T09:45:57.602Z,2.17
2022-08-18T09:48:31.633Z,2.30
2022-08-18T09:50:37.474Z,1.92
2022-08-18T09:51:40.160Z,2.30
2022-08-18T09:54:21.065Z,2.30
2022-08-18T09:57:19.506Z,2.15
2022-08-18T09:59:59.829Z,2.28
2022-08-18T10:03:12.127Z,1.80
2022-08-18T10:05:57.238Z,2.10
2022-08-18T10:08:59.208Z,2.30
2022-08-18T10:11:41.879Z,2.15
2022-08-18T10:14:47.837Z,2.30
2022-08-18T10:17:28.070Z,2.30
2022-08-18T10:20:26.755Z,2.10
2022-08-18T10:22:58.168Z,2.25
2022-08-18T10:25:41.289Z,2.10
2022-08-18T10:28:13.437Z,2.30
2022-08-18T10:31:08.797Z,2.15
2022-08-18T10:34:08.500Z,3.47
2022-08-18T10:36:53.145Z,3.25
2022-08-18T10:39:25.049Z,3.00
2022-08-18T10:42:14.941Z,2.97
2022-08-18T10:44:46.981Z,2.92
2022-08-18T10:47:25.637Z,2.80
2022-08-18T10:50:06.226Z,3.28
2022-08-18T10:53:39.460Z,2.92
2022-08-18T10:56:05.208Z,2.80
2022-08-18T10:58:45.212Z,2.90
2022-08-18T11:01:30.949Z,2.83
2022-08-18T11:04:33.579Z,3.10
2022-08-18T11:07:03.511Z,3.00
2022-08-18T11:09:41.597Z,3.00
2022-08-18T11:12:17.193Z,4.07
2022-08-18T11:15:22.497Z,3.63
2022-08-18T12:31:54.179Z,2.40
2022-08-18T12:34:26.625Z,2.22
2022-08-18T12:36:58.824Z,3.17
2022-08-18T12:39:28.760Z,3.90
2022-08-18T12:41:59.576Z,4.03
2022-08-18T12:44:29.318Z,4.57
2022-08-18T12:47:00.050Z,3.83
2022-08-18T12:49:29.482Z,4.60
2022-08-18T12:51:59.224Z,4.25
2022-08-18T12:54:34.380Z,4.60
2022-08-18T12:57:06.702Z,3.97
2022-08-18T12:59:37.693Z,3.97
2022-08-18T13:02:10.084Z,3.88
2022-08-18T13:04:40.212Z,4.38
2022-08-18T13:07:09.394Z,3.80
2022-08-18T13:09:52.972Z,3.85
2022-08-18T13:12:25.722Z,4.00
2022-08-18T13:14:56.545Z,3.83
2022-08-18T13:17:30.347Z,3.33
2022-08-18T13:20:04.727Z,3.28
2022-08-18T13:22:33.715Z,3.50
2022-08-18T13:25:05.720Z,3.20
2022-08-18T13:27:35.434Z,3.30
2022-08-18T13:30:16.853Z,4.22
2022-08-18T13:33:00.462Z,2.97
2022-08-18T13:35:44.300Z,2.75
2022-08-18T13:38:17.503Z,2.78
2022-08-18T13:40:50.206Z,2.60
2022-08-18T13:43:23.395Z,2.38
2022-08-18T13:45:53.458Z,2.50
2022-08-18T13:48:26.921Z,2.38
2022-08-18T13:50:58.493Z,2.75
2022-08-18T13:53:29.822Z,1.98
2022-08-18T13:56:00.629Z,1.90
2022-08-18T13:58:30.732Z,2.40
2022-08-18T14:01:22.634Z,1.80
2022-08-18T14:03:52.842Z,2.08
2022-08-18T14:06:23.705Z,2.00
2022-08-18T14:08:53.956Z,2.22
2022-08-18T14:11:33.023Z,1.90
2022-08-18T14:14:03.693Z,2.25
2022-08-18T14:16:33.042Z,2.10
2022-08-18T14:19:22.698Z,2.22
2022-08-18T14:22:11.720Z,1.80
2022-08-18T14:24:58.817Z,2.30
2022-08-18T14:27:34.754Z,2.13
2022-08-18T14:30:06.970Z,2.35
2022-08-18T14:32:36.812Z,2.45
2022-08-18T14:36:03.701Z,2.50
2022-08-18T14:38:12.742Z,2.30
2022-08-18T14:40:43.559Z,2.50
2022-08-18T14:43:14.259Z,2.63
2022-08-18T14:45:48.810Z,2.10
2022-08-18T14:48:20.581Z,2.20
2022-08-18T14:50:54.530Z,2.00
2022-08-18T14:53:26.350Z,2.05
2022-08-18T14:55:56.557Z,2.13
2022-08-18T14:58:30.678Z,2.05
2022-08-18T15:01:01.880Z,2.25
2022-08-18T15:03:33.777Z,1.85
2022-08-18T15:06:10.016Z,2.15
2022-08-18T15:08:47.098Z,1.73
2022-08-18T15:11:16.890Z,2.03
2022-08-18T15:13:46.532Z,2.20
2022-08-18T15:16:17.129Z,2.10
2022-08-18T15:18:47.714Z,2.13
2022-08-18T15:21:38.993Z,1.95
2022-08-18T15:24:26.360Z,2.47
2022-08-18T15:26:57.909Z,2.30
2022-08-18T15:29:29.517Z,2.33
2022-08-18T15:32:05.228Z,2.30
2022-08-18T15:34:47.220Z,2.10
2022-08-18T15:37:24.081Z,2.42
2022-08-18T15:40:02.926Z,2.05
2022-08-18T15:42:33.224Z,2.28
2022-08-18T15:45:11.639Z,2.13
2022-08-18T15:47:43.238Z,2.30
2022-08-18T15:50:25.598Z,1.80
2022-08-18T15:52:59.080Z,1.95
2022-08-18T15:55:32.922Z,2.05
2022-08-18T15:58:10.889Z,1.92
2022-08-18T16:00:42.420Z,2.03
2022-08-18T16:03:14.613Z,2.25
2022-08-18T16:05:52.685Z,1.77
2022-08-18T16:08:28.459Z,2.13
2022-08-18T16:11:00.381Z,2.22
2022-08-18T16:13:29.555Z,1.98
2022-08-18T16:15:59.556Z,1.88
2022-08-18T16:18:29.735Z,1.92
2022-08-18T16:21:05.207Z,1.80
2022-08-18T16:23:36.991Z,1.80
2022-08-18T16:26:07.675Z,2.53
2022-08-18T16:28:37.139Z,1.83
2022-08-18T16:31:06.354Z,3.53
2022-08-18T16:33:36.196Z,2.10
2022-08-18T16:36:06.913Z,2.60
2022-08-18T16:38:44.174Z,2.10
2022-08-18T16:41:17.556Z,2.47
2022-08-18T16:43:48.037Z,2.00
2022-08-18T16:46:19.287Z,1.98
2022-08-18T16:48:48.516Z,2.22
2022-08-18T16:51:19.549Z,2.30
2022-08-18T16:53:52.659Z,1.92
2022-08-18T16:56:23.630Z,1.65
2022-08-18T16:59:10.219Z,2.50
2022-08-18T17:01:59.052Z,2.30
2022-08-18T17:04:30.198Z,2.20
2022-08-18T17:06:59.001Z,2.00
2022-08-18T17:09:30.556Z,1.85
2022-08-18T17:11:59.580Z,2.85
2022-08-18T17:14:31.349Z,2.00
2022-08-18T17:17:01.059Z,2.10
2022-08-18T17:19:33.396Z,1.80
2022-08-18T17:22:03.344Z,2.25
2022-08-18T17:24:33.698Z,2.35
2022-08-18T17:27:17.881Z,2.45
2022-08-18T17:30:04.348Z,2.22
2022-08-18T17:32:40.748Z,2.53
2022-08-18T17:35:15.000Z,2.20
2022-08-18T17:37:49.549Z,2.22
2022-08-18T17:40:24.849Z,2.47
2022-08-18T17:42:59.998Z,2.17
2022-08-18T17:45:32.135Z,1.63
2022-08-18T17:48:06.258Z,2.83
2022-08-18T17:50:54.913Z,2.53
2022-08-18T17:53:24.555Z,2.42
2022-08-18T17:56:00.138Z,2.83
2022-08-18T17:58:40.583Z,3.30
2022-08-18T18:01:10.589Z,3.10
2022-08-18T18:03:40.152Z,2.90
2022-08-18T18:06:14.481Z,2.88
2022-08-18T18:08:54.743Z,2.28
2022-08-18T18:11:32.391Z,2.38
2022-08-18T18:14:02.898Z,2.33
2022-08-18T18:16:35.552Z,2.45
2022-08-18T18:19:08.402Z,2.70
2022-08-18T18:22:00.458Z,3.00
2022-08-18T18:24:33.331Z,2.70
2022-08-18T18:27:13.331Z,2.33
2022-08-18T18:29:43.969Z,2.50
2022-08-18T18:32:26.409Z,3.15
2022-08-18T18:35:15.674Z,2.55
2022-08-18T18:37:51.985Z,3.03
2022-08-18T18:40:32.637Z,2.85
2022-08-18T18:43:23.418Z,2.40
2022-08-18T18:46:23.335Z,2.97
2022-08-18T18:49:12.469Z,2.65
2022-08-18T18:51:51.039Z,2.40
2022-08-18T18:54:36.189Z,2.53
2022-08-18T18:57:12.481Z,2.30
2022-08-18T19:02:40.919Z,2.53
2022-08-18T19:05:22.149Z,2.45
2022-08-18T19:08:07.720Z,2.60
2022-08-18T19:10:41.440Z,2.58
2022-08-18T19:13:32.551Z,3.40
2022-08-18T19:16:23.588Z,2.90
2022-08-18T19:19:37.678Z,4.28
2022-08-18T19:22:03.596Z,4.35
2022-08-18T19:24:39.325Z,3.28
2022-08-18T19:27:23.155Z,3.05
2022-08-18T19:29:57.049Z,3.75
2022-08-18T19:32:38.229Z,3.42
2022-08-18T19:35:11.773Z,3.50
2022-08-18T19:38:04.618Z,3.65
2022-08-18T19:40:45.283Z,2.92
2022-08-18T19:43:26.778Z,2.92
2022-08-18T19:46:02.191Z,3.25
2022-08-18T19:48:39.528Z,3.08
2022-08-18T19:51:13.208Z,3.72
2022-08-18T19:54:00.857Z,3.63
2022-08-18T19:56:48.920Z,3.60
2022-08-18T19:59:39.958Z,3.13
2022-08-18T20:02:28.899Z,2.60
2022-08-18T20:05:13.580Z,2.88
2022-08-18T20:08:06.031Z,3.00
2022-08-18T20:10:58.060Z,2.75
2022-08-18T20:13:35.508Z,2.67
2022-08-18T20:16:44.317Z,2.20
2022-08-18T20:19:41.872Z,2.88
2022-08-18T20:22:28.213Z,2.78
2022-08-18T20:25:05.652Z,3.10
2022-08-18T20:27:37.357Z,2.83
2022-08-18T20:30:35.209Z,2.50
2022-08-18T20:33:19.828Z,2.70
2022-08-18T20:35:59.477Z,2.53
2022-08-18T20:38:35.386Z,3.05
2022-08-18T20:41:47.397Z,2.70
2022-08-18T20:44:39.176Z,2.70
2022-08-18T20:47:44.089Z,2.50
2022-08-18T20:50:51.317Z,2.67
2022-08-18T20:53:59.166Z,2.33
2022-08-18T20:56:46.747Z,2.45
2022-08-18T20:59:20.667Z,2.78
2022-08-18T21:01:58.356Z,2.60
2022-08-18T21:04:42.450Z,2.63
2022-08-18T21:07:36.665Z,2.50
2022-08-18T21:10:14.597Z,2.78
2022-08-18T21:12:52.437Z,2.50
2022-08-18T21:15:24.600Z,2.55
2022-08-18T21:18:01.608Z,2.30
2022-08-18T21:20:31.878Z,3.35
2022-08-18T21:23:06.979Z,2.50
2022-08-18T21:25:37.919Z,2.58
2022-08-18T21:28:07.918Z,2.83
2022-08-18T21:30:38.263Z,2.70
2022-08-18T21:33:20.412Z,2.80
2022-08-18T21:35:49.499Z,3.22
2022-08-18T21:38:27.167Z,3.33
2022-08-18T21:41:01.168Z,2.90
2022-08-18T21:43:49.330Z,2.60
2022-08-18T21:46:25.697Z,3.28
2022-08-18T21:48:56.604Z,2.63
2022-08-18T21:51:27.692Z,3.35
2022-08-18T21:53:58.732Z,3.08
2022-08-18T21:56:31.291Z,2.85
2022-08-18T21:59:09.803Z,3.00
2022-08-18T22:01:48.205Z,2.83
2022-08-18T22:04:27.650Z,2.97
2022-08-18T22:06:59.537Z,3.88
2022-08-18T22:09:47.710Z,3.42
2022-08-18T22:12:58.392Z,3.70
2022-08-18T22:15:42.804Z,3.58
2022-08-18T22:18:35.955Z,2.78
2022-08-18T22:21:10.410Z,2.72
2022-08-18T22:24:03.186Z,3.50
2022-08-18T22:26:35.115Z,2.90
2022-08-18T22:29:14.555Z,3.35
2022-08-18T22:31:45.456Z,3.72
2022-08-18T22:34:17.636Z,3.60
2022-08-18T22:37:00.001Z,3.40
2022-08-18T22:39:30.975Z,3.20
2022-08-18T22:42:00.618Z,3.30
2022-08-18T22:44:31.319Z,3.50
2022-08-18T22:47:00.369Z,3.40
2022-08-18T22:49:30.160Z,3.67
2022-08-18T22:52:01.711Z,3.42
2022-08-18T22:54:30.860Z,2.90
2022-08-18T22:57:01.510Z,3.10
2022-08-18T22:59:32.670Z,3.08
2022-08-18T23:02:02.984Z,3.35
2022-08-18T23:04:31.823Z,3.72
2022-08-18T23:07:00.864Z,3.25
2022-08-18T23:09:31.930Z,3.72
2022-08-18T23:12:06.973Z,3.20
2022-08-18T23:14:37.913Z,3.70
2022-08-18T23:17:07.972Z,2.97
2022-08-18T23:19:36.796Z,2.97
2022-08-18T23:22:06.828Z,3.08
2022-08-18T23:24:35.938Z,2.50
2022-08-18T23:27:06.416Z,3.10
2022-08-18T23:29:37.129Z,2.60
2022-08-18T23:32:07.129Z,3.15
2022-08-18T23:34:37.635Z,2.92
2022-08-18T23:37:09.745Z,2.70
2022-08-18T23:39:39.910Z,2.80
2022-08-18T23:42:13.285Z,2.72
2022-08-18T23:44:43.620Z,2.83
2022-08-18T23:47:13.759Z,3.00
2022-08-18T23:49:42.624Z,2.92
2022-08-18T23:52:11.508Z,3.50
2022-08-18T23:54:40.397Z,3.38
2022-08-18T23:57:09.282Z,3.38
2022-08-18T23:59:38.082Z,3.00
